Time;durP1;ratioP1;P1;durP2;ratioP2;P2;SDS_P1;SDS_P2;PMS_P1;PMS_P2;Temp;Humidity;BMP_temperature;BMP_pressure;BME280_temperature;BME280_humidity;BME280_pressure;Samples;Min_cycle;Max_cycle;Signal;HPM_P1;HPM_P2
2021/04/20 00:27:59;;;;;;;7.90;2.55;;;;;;;;;;4250004;29;20127;-65
2021/04/20 00:30:25;;;;;;;6.95;2.60;;;;;;;;;;4151703;34;20198;-65
2021/04/20 00:32:51;;;;;;;8.00;2.55;;;;;;;;;;4152413;34;20142;-64
2021/04/20 00:35:17;;;;;;;5.35;2.55;;;;;;;;;;4145945;34;20131;-65
2021/04/20 00:37:43;;;;;;;5.18;2.40;;;;;;;;;;4136481;34;20126;-67
2021/04/20 00:40:10;;;;;;;7.97;2.40;;;;;;;;;;4136631;34;20123;-64
2021/04/20 00:42:49;;;;;;;6.15;2.33;;;;;;;;;;4136624;34;20108;-64
2021/04/20 00:45:16;;;;;;;9.93;2.83;;;;;;;;;;4148400;34;20532;-64
2021/04/20 00:47:42;;;;;;;6.30;2.50;;;;;;;;;;4149831;34;20129;-67
2021/04/20 00:50:10;;;;;;;7.07;2.28;;;;;;;;;;4149922;34;20539;-67
2021/04/20 00:52:36;;;;;;;7.82;2.47;;;;;;;;;;4149858;34;20186;-67
2021/04/20 00:55:02;;;;;;;8.00;2.70;;;;;;;;;;4149908;34;20131;-67
2021/04/20 00:57:28;;;;;;;7.95;2.47;;;;;;;;;;4137320;34;20103;-67
2021/04/20 00:59:53;;;;;;;5.75;2.70;;;;;;;;;;4150058;34;20126;-67
2021/04/20 01:02:19;;;;;;;9.35;2.80;;;;;;;;;;4149769;34;20111;-66
2021/04/20 01:04:45;;;;;;;10.30;3.08;;;;;;;;;;4137179;34;20436;-66
2021/04/20 01:07:11;;;;;;;8.23;3.45;;;;;;;;;;4137234;34;20134;-66
2021/04/20 01:09:37;;;;;;;12.10;3.28;;;;;;;;;;4137201;34;20628;-67
2021/04/20 01:12:03;;;;;;;7.97;2.83;;;;;;;;;;4125784;34;20211;-66
2021/04/20 01:14:29;;;;;;;5.00;2.40;;;;;;;;;;4137282;34;20126;-66
2021/04/20 01:16:55;;;;;;;7.15;2.28;;;;;;;;;;4149665;34;20614;-67
2021/04/20 01:19:21;;;;;;;4.70;2.03;;;;;;;;;;4149635;34;20099;-67
2021/04/20 01:21:47;;;;;;;5.60;2.00;;;;;;;;;;4126308;34;20522;-67
2021/04/20 01:24:13;;;;;;;2.72;2.05;;;;;;;;;;4152021;34;20182;-67
2021/04/20 01:26:43;;;;;;;2.58;1.90;;;;;;;;;;4151322;34;20111;-67
2021/04/20 01:29:09;;;;;;;3.10;2.08;;;;;;;;;;4151891;34;20122;-66
2021/04/20 01:31:37;;;;;;;5.45;2.10;;;;;;;;;;4151672;34;20532;-66
2021/04/20 01:34:03;;;;;;;5.70;1.90;;;;;;;;;;4151562;34;20121;-66
2021/04/20 01:36:29;;;;;;;5.28;1.85;;;;;;;;;;4151464;34;20130;-67
2021/04/20 01:38:55;;;;;;;5.28;1.95;;;;;;;;;;4151606;34;20307;-67
2021/04/20 01:41:22;;;;;;;2.80;1.80;;;;;;;;;;4151562;34;20125;-67
2021/04/20 01:43:48;;;;;;;4.30;2.08;;;;;;;;;;4151655;34;20102;-67
2021/04/20 01:46:15;;;;;;;3.75;1.70;;;;;;;;;;4139266;34;20129;-67
2021/04/20 01:48:41;;;;;;;5.93;2.00;;;;;;;;;;4151686;34;20087;-66
2021/04/20 01:51:07;;;;;;;5.62;2.08;;;;;;;;;;4152143;34;20118;-66
2021/04/20 01:53:33;;;;;;;6.45;1.77;;;;;;;;;;4151555;34;20205;-66
2021/04/20 01:56:03;;;;;;;8.60;2.00;;;;;;;;;;4139205;34;20602;-66
2021/04/20 01:58:29;;;;;;;2.67;1.85;;;;;;;;;;4151401;34;20560;-67
2021/04/20 02:00:55;;;;;;;7.15;1.87;;;;;;;;;;4138950;34;20536;-66
2021/04/20 02:03:23;;;;;;;8.95;2.10;;;;;;;;;;4138753;34;20148;-66
2021/04/20 02:05:49;;;;;;;9.57;2.47;;;;;;;;;;4128058;34;20134;-66
2021/04/20 02:08:15;;;;;;;5.78;2.22;;;;;;;;;;4151302;34;20208;-66
2021/04/20 02:10:41;;;;;;;4.40;2.17;;;;;;;;;;4138842;34;20119;-66
2021/04/20 02:13:07;;;;;;;2.42;1.73;;;;;;;;;;4138600;34;20216;-66
2021/04/20 02:15:33;;;;;;;9.43;2.20;;;;;;;;;;4127657;34;20487;-66
2021/04/20 02:17:59;;;;;;;5.75;2.15;;;;;;;;;;4138925;34;20116;-65
2021/04/20 02:20:25;;;;;;;7.07;2.80;;;;;;;;;;4138722;34;20157;-68
2021/04/20 02:22:51;;;;;;;12.60;3.90;;;;;;;;;;4138628;34;20225;-67
2021/04/20 02:25:18;;;;;;;11.30;2.67;;;;;;;;;;4138996;34;20196;-67
2021/04/20 02:27:45;;;;;;;11.95;2.40;;;;;;;;;;4151140;34;20123;-67
2021/04/20 02:30:12;;;;;;;6.32;3.08;;;;;;;;;;4138801;34;20091;-67
2021/04/20 02:32:38;;;;;;;4.85;2.12;;;;;;;;;;4151270;34;20338;-68
2021/04/20 02:35:05;;;;;;;7.07;2.95;;;;;;;;;;4138396;34;20137;-68
2021/04/20 02:37:32;;;;;;;9.07;2.35;;;;;;;;;;4138932;34;20126;-67
2021/04/20 02:39:58;;;;;;;7.47;2.28;;;;;;;;;;4138620;34;20115;-67
2021/04/20 02:42:24;;;;;;;10.05;2.30;;;;;;;;;;4138864;34;20111;-68
2021/04/20 02:44:51;;;;;;;6.45;2.17;;;;;;;;;;4151263;34;20549;-69
2021/04/20 02:47:17;;;;;;;5.25;2.15;;;;;;;;;;4138483;34;20112;-65
2021/04/20 02:49:43;;;;;;;23.83;4.35;;;;;;;;;;4138484;34;20554;-66
2021/04/20 02:52:09;;;;;;;7.87;2.35;;;;;;;;;;4150766;34;20235;-65
2021/04/20 02:54:35;;;;;;;3.45;1.95;;;;;;;;;;4138733;34;20138;-68
2021/04/20 02:57:01;;;;;;;6.50;1.83;;;;;;;;;;4138501;34;20525;-65
2021/04/20 02:59:27;;;;;;;6.47;1.98;;;;;;;;;;4127361;34;20234;-66
2021/04/20 03:01:53;;;;;;;2.95;2.05;;;;;;;;;;4138208;34;20112;-65
2021/04/20 03:04:19;;;;;;;15.45;3.55;;;;;;;;;;4150852;34;20134;-67
2021/04/20 03:06:45;;;;;;;5.70;1.85;;;;;;;;;;4138450;34;20130;-66
2021/04/20 03:09:12;;;;;;;9.13;2.58;;;;;;;;;;4138339;34;20131;-65
2021/04/20 03:12:02;;;;;;;8.60;2.70;;;;;;;;;;4133969;34;20135;-66
2021/04/20 03:14:28;;;;;;;3.42;2.00;;;;;;;;;;4125779;34;20207;-65
2021/04/20 03:16:55;;;;;;;8.95;2.85;;;;;;;;;;4113643;34;20134;-64
2021/04/20 03:19:20;;;;;;;10.43;2.53;;;;;;;;;;4137556;34;20457;-63
2021/04/20 03:21:47;;;;;;;9.15;3.12;;;;;;;;;;4138059;34;20114;-63
2021/04/20 03:24:31;;;;;;;3.95;2.03;;;;;;;;;;4125124;34;20120;-64
2021/04/20 03:26:57;;;;;;;15.55;3.45;;;;;;;;;;4137197;34;20108;-65
2021/04/20 03:29:23;;;;;;;3.58;2.15;;;;;;;;;;4137663;34;20123;-63
2021/04/20 03:31:49;;;;;;;6.75;2.45;;;;;;;;;;4137347;34;20121;-65
2021/04/20 03:34:39;;;;;;;10.18;2.45;;;;;;;;;;4114402;34;20157;-65
2021/04/20 03:37:13;;;;;;;5.00;2.05;;;;;;;;;;4124941;34;20150;-63
2021/04/20 03:39:44;;;;;;;17.40;4.20;;;;;;;;;;4125083;34;20281;-63
2021/04/20 03:42:36;;;;;;;10.35;2.35;;;;;;;;;;4125137;34;20138;-63
2021/04/20 03:45:06;;;;;;;9.75;2.67;;;;;;;;;;4125178;34;20525;-63
2021/04/20 03:47:38;;;;;;;6.97;3.90;;;;;;;;;;4125297;34;20190;-64
2021/04/20 03:50:13;;;;;;;7.68;2.75;;;;;;;;;;4138338;34;20114;-64
2021/04/20 03:52:45;;;;;;;13.93;2.75;;;;;;;;;;4125863;34;20549;-64
2021/04/20 03:55:12;;;;;;;8.02;2.83;;;;;;;;;;4124987;34;20218;-66
2021/04/20 03:57:38;;;;;;;10.63;3.15;;;;;;;;;;4125146;34;20159;-67
2021/04/20 04:00:05;;;;;;;15.32;4.07;;;;;;;;;;4125066;34;20119;-64
2021/04/20 04:02:34;;;;;;;12.13;3.53;;;;;;;;;;4137472;34;20139;-65
2021/04/20 04:05:00;;;;;;;13.00;3.00;;;;;;;;;;4125183;34;20154;-63
2021/04/20 04:07:26;;;;;;;9.57;3.08;;;;;;;;;;4113809;34;20123;-65
2021/04/20 04:09:51;;;;;;;15.85;3.10;;;;;;;;;;4113839;34;20119;-65
2021/04/20 04:12:17;;;;;;;7.45;2.35;;;;;;;;;;4124979;34;20557;-65
2021/04/20 04:14:43;;;;;;;7.25;2.17;;;;;;;;;;4124677;34;20123;-65
2021/04/20 04:17:10;;;;;;;5.20;2.50;;;;;;;;;;4114046;34;20095;-63
2021/04/20 04:19:38;;;;;;;13.60;2.65;;;;;;;;;;4124628;34;20231;-64
2021/04/20 04:22:11;;;;;;;11.73;2.42;;;;;;;;;;4137050;34;20146;-65
2021/04/20 04:24:56;;;;;;;14.27;3.28;;;;;;;;;;4137024;34;20171;-64
2021/04/20 04:27:24;;;;;;;7.30;2.50;;;;;;;;;;4136967;34;20115;-65
2021/04/20 04:29:52;;;;;;;8.93;3.05;;;;;;;;;;4124744;34;20133;-65
2021/04/20 04:32:18;;;;;;;10.80;3.05;;;;;;;;;;4124760;34;20142;-63
2021/04/20 04:34:45;;;;;;;8.90;2.72;;;;;;;;;;4137037;34;20103;-63
2021/04/20 04:37:11;;;;;;;15.55;3.40;;;;;;;;;;4113468;34;20143;-65
2021/04/20 04:39:37;;;;;;;9.95;2.45;;;;;;;;;;4113570;34;20146;-65
2021/04/20 04:42:03;;;;;;;12.15;2.83;;;;;;;;;;4137242;34;20127;-65
2021/04/20 04:44:29;;;;;;;8.05;2.28;;;;;;;;;;4137458;34;20210;-65
2021/04/20 04:46:55;;;;;;;7.43;2.62;;;;;;;;;;4124262;34;20115;-66
2021/04/20 04:49:21;;;;;;;9.52;2.90;;;;;;;;;;4137021;34;20151;-65
2021/04/20 04:51:47;;;;;;;6.72;1.75;;;;;;;;;;4136902;34;20464;-63
2021/04/20 04:54:13;;;;;;;6.85;3.78;;;;;;;;;;4136954;34;20094;-63
2021/04/20 04:56:42;;;;;;;9.50;2.37;;;;;;;;;;4113342;34;20115;-64
2021/04/20 04:59:15;;;;;;;6.65;1.80;;;;;;;;;;4126683;34;20131;-65
2021/04/20 05:01:41;;;;;;;8.05;2.70;;;;;;;;;;4138736;34;20466;-65
2021/04/20 05:04:08;;;;;;;10.73;2.70;;;;;;;;;;4139090;34;20127;-63
2021/04/20 05:06:38;;;;;;;14.77;3.47;;;;;;;;;;4139098;34;20511;-63
2021/04/20 05:09:08;;;;;;;10.63;3.22;;;;;;;;;;4139009;34;20207;-63
2021/04/20 05:11:36;;;;;;;7.28;2.78;;;;;;;;;;4139013;34;20526;-63
2021/04/20 05:14:02;;;;;;;4.80;2.30;;;;;;;;;;4115653;34;20131;-65
2021/04/20 05:16:28;;;;;;;6.75;2.85;;;;;;;;;;4126260;34;20159;-63
2021/04/20 05:18:54;;;;;;;10.43;2.58;;;;;;;;;;4126789;34;20202;-65
2021/04/20 05:21:22;;;;;;;6.72;2.25;;;;;;;;;;4126131;34;20141;-63
2021/04/20 05:23:48;;;;;;;6.82;1.87;;;;;;;;;;4126099;34;20440;-64
2021/04/20 05:26:13;;;;;;;74.15;7.80;;;;;;;;;;4138751;34;20104;-65
2021/04/20 05:28:39;;;;;;;10.63;3.22;;;;;;;;;;4126172;34;20196;-64
2021/04/20 05:31:05;;;;;;;13.75;2.67;;;;;;;;;;4138541;34;20216;-63
2021/04/20 05:33:31;;;;;;;6.93;2.67;;;;;;;;;;4126182;34;20138;-65
2021/04/20 05:36:09;;;;;;;12.18;2.37;;;;;;;;;;4138822;34;20219;-65
2021/04/20 05:38:36;;;;;;;3.20;2.03;;;;;;;;;;4138726;34;20111;-63
2021/04/20 05:41:02;;;;;;;6.07;2.60;;;;;;;;;;4138402;34;20527;-64
2021/04/20 05:43:28;;;;;;;10.45;3.10;;;;;;;;;;4139086;34;20541;-63
2021/04/20 05:45:54;;;;;;;14.10;3.40;;;;;;;;;;4139449;34;20209;-65
2021/04/20 05:48:21;;;;;;;10.85;2.62;;;;;;;;;;4126787;34;20131;-62
2021/04/20 05:50:51;;;;;;;5.97;2.37;;;;;;;;;;4126387;34;20200;-63
2021/04/20 05:53:17;;;;;;;4.40;2.20;;;;;;;;;;4126361;34;20104;-63
2021/04/20 05:55:43;;;;;;;9.50;2.50;;;;;;;;;;4138367;34;20115;-65
2021/04/20 05:58:09;;;;;;;12.15;2.85;;;;;;;;;;4138716;34;20123;-64
2021/04/20 06:00:35;;;;;;;7.68;2.62;;;;;;;;;;4138541;34;20230;-64
2021/04/20 06:03:01;;;;;;;14.43;2.78;;;;;;;;;;4139222;34;20107;-64
2021/04/20 06:05:27;;;;;;;8.77;2.67;;;;;;;;;;4114911;34;20119;-62
2021/04/20 06:07:54;;;;;;;10.00;2.10;;;;;;;;;;4138201;34;20523;-63
2021/04/20 06:10:20;;;;;;;5.62;2.45;;;;;;;;;;4137832;34;20099;-64
2021/04/20 06:12:46;;;;;;;9.10;2.08;;;;;;;;;;4140455;34;20136;-62
2021/04/20 06:15:14;;;;;;;4.40;2.00;;;;;;;;;;4139032;34;20100;-63
2021/04/20 06:17:40;;;;;;;9.27;2.15;;;;;;;;;;4139229;34;20127;-64
2021/04/20 06:20:08;;;;;;;10.90;2.45;;;;;;;;;;4152333;34;20110;-64
2021/04/20 06:22:35;;;;;;;5.57;1.98;;;;;;;;;;4151698;34;20142;-65
2021/04/20 06:25:00;;;;;;;8.65;2.40;;;;;;;;;;4139272;34;20119;-63
2021/04/20 06:27:27;;;;;;;8.63;2.20;;;;;;;;;;4151338;34;20119;-65
2021/04/20 06:29:53;;;;;;;3.78;1.60;;;;;;;;;;4128032;34;20115;-62
2021/04/20 06:32:20;;;;;;;5.97;1.75;;;;;;;;;;4139137;34;20103;-63
2021/04/20 06:34:46;;;;;;;12.25;2.15;;;;;;;;;;4138878;34;20583;-62
2021/04/20 06:37:12;;;;;;;8.57;2.55;;;;;;;;;;4127707;34;20515;-63
2021/04/20 06:39:38;;;;;;;5.78;2.30;;;;;;;;;;4138841;34;20237;-65
2021/04/20 06:42:06;;;;;;;9.23;2.30;;;;;;;;;;4151450;34;20512;-62
2021/04/20 06:44:47;;;;;;;21.83;2.87;;;;;;;;;;4151815;34;20103;-62
2021/04/20 06:47:15;;;;;;;12.43;2.17;;;;;;;;;;4139275;34;20138;-62
2021/04/20 06:50:17;;;;;;;10.63;2.30;;;;;;;;;;4151352;34;20514;-62
2021/04/20 06:52:59;;;;;;;6.30;2.00;;;;;;;;;;4098137;34;20118;-62
2021/04/20 06:55:27;;;;;;;4.43;1.98;;;;;;;;;;4147597;34;20103;-63
2021/04/20 06:58:06;;;;;;;10.65;1.83;;;;;;;;;;4151206;34;20119;-64
2021/04/20 07:00:45;;;;;;;6.32;2.15;;;;;;;;;;4140065;34;20103;-63
2021/04/20 07:03:29;;;;;;;8.27;2.00;;;;;;;;;;4138669;34;20142;-65
2021/04/20 07:06:04;;;;;;;32.75;3.60;;;;;;;;;;4138553;34;20193;-65
2021/04/20 07:08:51;;;;;;;2.20;2.00;;;;;;;;;;4151480;34;20190;-64
2021/04/20 07:11:17;;;;;;;7.22;2.08;;;;;;;;;;4151041;34;20202;-62
2021/04/20 07:13:48;;;;;;;7.15;2.58;;;;;;;;;;4151097;34;20115;-64
2021/04/20 07:16:25;;;;;;;8.30;2.30;;;;;;;;;;4151228;34;20146;-62
2021/04/20 07:19:29;;;;;;;3.42;2.35;;;;;;;;;;4138501;34;20114;-61
2021/04/20 07:22:20;;;;;;;11.52;2.20;;;;;;;;;;4151260;34;20119;-62
2021/04/20 07:25:14;;;;;;;8.25;1.90;;;;;;;;;;4151120;34;20206;-64
2021/04/20 07:28:18;;;;;;;5.25;2.08;;;;;;;;;;4140080;34;20119;-64
2021/04/20 07:30:54;;;;;;;4.30;2.03;;;;;;;;;;4127559;34;20114;-64
2021/04/20 07:33:57;;;;;;;4.53;1.70;;;;;;;;;;4139184;34;20115;-64
2021/04/20 07:36:42;;;;;;;8.57;1.95;;;;;;;;;;4138061;34;20208;-64
2021/04/20 07:39:10;;;;;;;10.65;2.80;;;;;;;;;;4150877;34;20231;-63
2021/04/20 07:41:53;;;;;;;5.93;2.28;;;;;;;;;;4139481;34;20215;-64
2021/04/20 07:44:50;;;;;;;12.15;2.65;;;;;;;;;;4138469;34;20527;-61
2021/04/20 07:47:16;;;;;;;3.60;1.80;;;;;;;;;;4149754;34;20412;-62
2021/04/20 07:49:59;;;;;;;6.28;2.30;;;;;;;;;;4138231;34;20141;-63
2021/04/20 07:52:43;;;;;;;8.27;1.92;;;;;;;;;;4138588;34;20505;-62
2021/04/20 07:55:15;;;;;;;3.05;1.60;;;;;;;;;;4150769;34;20135;-63
2021/04/20 07:57:44;;;;;;;5.28;1.75;;;;;;;;;;4138344;34;20440;-64
2021/04/20 08:00:15;;;;;;;2.37;1.80;;;;;;;;;;4150680;34;20123;-62
2021/04/20 08:02:58;;;;;;;2.50;1.98;;;;;;;;;;4138251;34;20126;-62
2021/04/20 08:05:35;;;;;;;13.90;2.80;;;;;;;;;;4151455;34;20122;-62
2021/04/20 08:08:22;;;;;;;3.72;2.10;;;;;;;;;;4138282;34;20182;-64
2021/04/20 08:10:57;;;;;;;10.65;2.85;;;;;;;;;;4150853;34;20555;-63
2021/04/20 08:13:37;;;;;;;6.50;2.25;;;;;;;;;;4138200;34;20530;-64
2021/04/20 08:16:25;;;;;;;9.63;2.15;;;;;;;;;;4137878;34;20145;-65
2021/04/20 08:19:00;;;;;;;7.75;2.42;;;;;;;;;;4118000;34;20119;-62
2021/04/20 08:21:27;;;;;;;4.47;1.85;;;;;;;;;;4138307;34;20553;-63
2021/04/20 08:23:52;;;;;;;14.70;2.28;;;;;;;;;;4138191;34;20553;-64
2021/04/20 08:26:26;;;;;;;5.82;2.10;;;;;;;;;;4127062;34;20134;-64
2021/04/20 08:29:00;;;;;;;15.13;2.95;;;;;;;;;;4138395;34;20104;-64
2021/04/20 08:31:50;;;;;;;17.00;2.53;;;;;;;;;;4137597;34;20146;-67
2021/04/20 08:34:24;;;;;;;5.85;1.90;;;;;;;;;;4150632;34;20215;-63
2021/04/20 08:37:06;;;;;;;5.72;2.03;;;;;;;;;;4138387;34;20234;-63
2021/04/20 08:40:02;;;;;;;17.05;4.25;;;;;;;;;;4150734;34;20127;-64
2021/04/20 08:42:45;;;;;;;2.80;1.90;;;;;;;;;;4150636;34;20111;-64
2021/04/20 08:45:24;;;;;;;7.93;1.90;;;;;;;;;;4138129;34;20123;-63
2021/04/20 08:48:02;;;;;;;9.57;2.60;;;;;;;;;;4138445;34;20102;-65
2021/04/20 08:50:29;;;;;;;11.73;2.00;;;;;;;;;;4138968;34;20272;-65
2021/04/20 08:53:39;;;;;;;11.90;2.80;;;;;;;;;;4137923;34;20113;-63
2021/04/20 08:56:54;;;;;;;5.82;2.87;;;;;;;;;;4145564;34;20142;-64
2021/04/20 08:59:30;;;;;;;1.70;1.30;;;;;;;;;;4101509;34;20206;-63
2021/04/20 09:02:22;;;;;;;4.18;1.77;;;;;;;;;;4150233;34;20171;-61
2021/04/20 09:05:22;;;;;;;3.65;2.28;;;;;;;;;;4131227;34;20197;-62
2021/04/20 09:07:50;;;;;;;8.90;2.80;;;;;;;;;;4150285;34;20130;-63
2021/04/20 09:10:56;;;;;;;15.20;2.60;;;;;;;;;;4150218;34;20247;-62
2021/04/20 09:13:25;;;;;;;14.95;2.37;;;;;;;;;;4096677;34;20524;-62
2021/04/20 09:15:53;;;;;;;17.05;3.53;;;;;;;;;;4107500;34;20143;-63
2021/04/20 09:18:20;;;;;;;2.72;1.98;;;;;;;;;;4117790;34;20104;-62
2021/04/20 09:20:52;;;;;;;17.37;2.92;;;;;;;;;;4137648;34;20126;-63
2021/04/20 09:23:22;;;;;;;12.37;2.65;;;;;;;;;;4149803;34;20122;-62
2021/04/20 09:25:54;;;;;;;1.62;1.37;;;;;;;;;;4149774;34;20145;-61
2021/04/20 09:29:04;;;;;;;1.60;1.50;;;;;;;;;;4149759;34;20182;-61
2021/04/20 09:31:36;;;;;;;13.02;2.85;;;;;;;;;;4124550;34;20126;-61
2021/04/20 09:34:03;;;;;;;36.30;4.47;;;;;;;;;;4149720;34;20116;-62
2021/04/20 09:36:30;;;;;;;6.68;2.10;;;;;;;;;;4137193;34;20119;-62
2021/04/20 09:38:56;;;;;;;5.87;2.33;;;;;;;;;;4150051;34;20296;-63
2021/04/20 09:41:31;;;;;;;5.18;2.53;;;;;;;;;;4137094;34;20112;-62
2021/04/20 09:44:31;;;;;;;10.85;2.37;;;;;;;;;;4151345;34;20525;-63
2021/04/20 09:47:22;;;;;;;9.35;2.33;;;;;;;;;;4151743;34;20223;-63
2021/04/20 09:50:03;;;;;;;5.62;2.15;;;;;;;;;;4151657;34;20107;-62
2021/04/20 09:52:50;;;;;;;2.50;1.35;;;;;;;;;;4138903;34;20561;-63
2021/04/20 09:55:19;;;;;;;7.65;1.90;;;;;;;;;;4151841;34;20480;-63
2021/04/20 09:57:46;;;;;;;19.52;2.60;;;;;;;;;;4139473;34;20130;-63
2021/04/20 10:00:15;;;;;;;12.25;2.40;;;;;;;;;;4139107;34;20126;-61
2021/04/20 10:02:54;;;;;;;9.88;2.40;;;;;;;;;;4139125;34;20119;-63
2021/04/20 10:05:48;;;;;;;8.82;2.40;;;;;;;;;;4151762;34;20216;-63
2021/04/20 10:08:23;;;;;;;5.75;2.25;;;;;;;;;;4151499;34;20475;-62
2021/04/20 10:11:03;;;;;;;12.30;2.80;;;;;;;;;;4139321;34;20103;-62
2021/04/20 10:13:44;;;;;;;7.55;2.28;;;;;;;;;;4138985;34;20115;-63
2021/04/20 10:16:22;;;;;;;10.40;2.35;;;;;;;;;;4144083;34;20130;-64
2021/04/20 10:19:12;;;;;;;7.87;2.55;;;;;;;;;;4135930;34;20111;-64
2021/04/20 10:21:57;;;;;;;5.75;1.70;;;;;;;;;;4126132;34;20137;-64
2021/04/20 10:24:24;;;;;;;9.45;2.80;;;;;;;;;;4148978;34;20167;-64
2021/04/20 10:27:17;;;;;;;9.75;2.70;;;;;;;;;;4127453;34;20111;-63
2021/04/20 10:30:13;;;;;;;9.48;2.33;;;;;;;;;;4149495;34;20204;-64
2021/04/20 10:32:45;;;;;;;7.70;2.12;;;;;;;;;;4136495;34;20119;-64
2021/04/20 10:35:21;;;;;;;6.97;2.62;;;;;;;;;;4138660;34;20471;-65
2021/04/20 10:37:52;;;;;;;7.30;2.05;;;;;;;;;;4150963;34;20222;-64
2021/04/20 10:40:23;;;;;;;9.38;2.42;;;;;;;;;;4138529;34;20210;-64
2021/04/20 10:42:49;;;;;;;5.15;2.35;;;;;;;;;;4138440;34;20106;-68
2021/04/20 10:45:16;;;;;;;4.15;2.12;;;;;;;;;;4138468;34;20182;-65
2021/04/20 10:47:47;;;;;;;9.82;2.50;;;;;;;;;;4151313;34;20149;-66
2021/04/20 10:50:17;;;;;;;4.78;1.83;;;;;;;;;;4138739;34;20543;-66
2021/04/20 10:52:43;;;;;;;12.45;1.90;;;;;;;;;;4137471;34;20139;-66
2021/04/20 10:55:12;;;;;;;3.10;1.90;;;;;;;;;;4124810;34;20116;-65
2021/04/20 10:57:39;;;;;;;16.35;3.00;;;;;;;;;;4137537;34;20107;-65
2021/04/20 11:00:06;;;;;;;13.25;2.65;;;;;;;;;;4125409;34;20199;-66
2021/04/20 11:02:39;;;;;;;9.60;2.37;;;;;;;;;;4125001;34;20107;-65
2021/04/20 11:05:05;;;;;;;5.50;2.33;;;;;;;;;;4125166;34;20137;-65
2021/04/20 11:07:40;;;;;;;9.55;3.12;;;;;;;;;;4125188;34;20154;-65
2021/04/20 11:10:07;;;;;;;4.80;2.37;;;;;;;;;;4137482;34;20119;-65
2021/04/20 11:12:39;;;;;;;8.88;2.78;;;;;;;;;;4137456;34;20138;-66
2021/04/20 11:15:05;;;;;;;10.40;2.37;;;;;;;;;;4138200;34;20102;-66
2021/04/20 11:17:46;;;;;;;13.50;2.72;;;;;;;;;;4150758;34;20146;-68
2021/04/20 11:20:30;;;;;;;11.77;3.05;;;;;;;;;;4138764;34;20141;-67
2021/04/20 11:23:07;;;;;;;15.80;2.70;;;;;;;;;;4138433;34;20195;-67
2021/04/20 11:25:55;;;;;;;6.45;2.10;;;;;;;;;;4150743;34;20117;-66
2021/04/20 11:28:43;;;;;;;9.30;2.80;;;;;;;;;;4150801;34;20198;-67
2021/04/20 11:31:29;;;;;;;20.40;2.87;;;;;;;;;;4150645;34;20115;-66
2021/04/20 11:34:16;;;;;;;7.75;2.58;;;;;;;;;;4145427;34;20535;-65
2021/04/20 11:36:47;;;;;;;9.68;2.90;;;;;;;;;;4149320;34;20122;-66
2021/04/20 11:39:19;;;;;;;8.80;2.17;;;;;;;;;;4138366;34;20119;-67
2021/04/20 11:41:52;;;;;;;6.97;2.53;;;;;;;;;;4138288;34;20211;-66
2021/04/20 11:44:18;;;;;;;10.10;3.08;;;;;;;;;;4138395;34;20103;-67
2021/04/20 11:46:46;;;;;;;5.57;2.58;;;;;;;;;;4138023;34;20190;-66
2021/04/20 11:49:18;;;;;;;6.07;2.55;;;;;;;;;;4137190;34;20142;-66
2021/04/20 11:51:45;;;;;;;10.30;2.65;;;;;;;;;;4113944;34;20104;-66
2021/04/20 11:54:21;;;;;;;11.45;3.03;;;;;;;;;;4124490;34;20122;-64
2021/04/20 11:56:48;;;;;;;11.00;3.20;;;;;;;;;;4113647;34;20126;-66
2021/04/20 11:59:17;;;;;;;15.98;3.05;;;;;;;;;;4124558;34;20440;-68
2021/04/20 12:01:45;;;;;;;13.02;3.37;;;;;;;;;;4125186;34;20108;-66
2021/04/20 12:04:11;;;;;;;10.38;2.50;;;;;;;;;;4113843;34;20123;-63
2021/04/20 12:06:50;;;;;;;8.98;2.70;;;;;;;;;;4123400;34;20240;-65
2021/04/20 12:09:26;;;;;;;2.10;1.15;;;;;;;;;;4124950;34;20103;-66
2021/04/20 12:11:55;;;;;;;16.35;2.70;;;;;;;;;;4136773;34;20212;-69
2021/04/20 12:14:22;;;;;;;8.43;2.62;;;;;;;;;;4124494;34;20565;-70
2021/04/20 12:16:48;;;;;;;14.25;3.10;;;;;;;;;;4118588;34;20201;-67
2021/04/20 12:19:19;;;;;;;9.80;2.78;;;;;;;;;;4137755;34;20135;-67
2021/04/20 12:21:46;;;;;;;9.02;2.80;;;;;;;;;;4137742;34;20515;-66
2021/04/20 12:24:16;;;;;;;8.40;5.05;;;;;;;;;;4137851;34;20215;-66
2021/04/20 12:26:43;;;;;;;10.10;2.90;;;;;;;;;;4137508;34;20133;-67
2021/04/20 12:29:11;;;;;;;7.10;2.72;;;;;;;;;;4137657;34;20170;-67
2021/04/20 12:31:37;;;;;;;9.15;2.92;;;;;;;;;;4137554;34;20107;-66
2021/04/20 12:34:03;;;;;;;12.60;2.80;;;;;;;;;;4137749;34;20115;-67
2021/04/20 12:36:54;;;;;;;8.30;2.47;;;;;;;;;;4137680;34;20107;-66
2021/04/20 12:39:40;;;;;;;8.13;2.40;;;;;;;;;;4149645;34;20104;-67
2021/04/20 12:42:08;;;;;;;14.73;2.53;;;;;;;;;;4149865;34;20107;-68
2021/04/20 12:44:39;;;;;;;4.62;1.95;;;;;;;;;;4140027;34;20103;-67
2021/04/20 12:47:07;;;;;;;10.73;2.35;;;;;;;;;;4142328;34;20157;-66
2021/04/20 12:49:34;;;;;;;8.48;1.98;;;;;;;;;;4142144;34;20198;-67
2021/04/20 12:52:05;;;;;;;5.85;2.17;;;;;;;;;;4143446;34;20496;-66
2021/04/20 12:54:35;;;;;;;4.20;1.83;;;;;;;;;;4141963;34;20595;-67
2021/04/20 12:57:01;;;;;;;11.40;3.37;;;;;;;;;;4151377;34;20095;-67
2021/04/20 12:59:27;;;;;;;6.87;2.30;;;;;;;;;;4138700;34;20206;-67
2021/04/20 13:01:58;;;;;;;2.03;1.73;;;;;;;;;;4127378;34;20565;-68
2021/04/20 13:04:34;;;;;;;3.45;2.20;;;;;;;;;;4137776;34;20327;-66
2021/04/20 13:07:00;;;;;;;12.07;3.00;;;;;;;;;;4132446;34;20518;-68
2021/04/20 13:09:37;;;;;;;6.18;2.40;;;;;;;;;;4137490;34;20119;-67
2021/04/20 13:12:05;;;;;;;8.00;2.40;;;;;;;;;;4137538;34;20129;-67
2021/04/20 13:14:31;;;;;;;8.95;2.75;;;;;;;;;;4137355;34;20115;-67
2021/04/20 13:16:57;;;;;;;17.67;2.35;;;;;;;;;;4137356;34;20127;-67
2021/04/20 13:19:35;;;;;;;5.22;2.35;;;;;;;;;;4139003;34;20149;-67
2021/04/20 13:22:03;;;;;;;12.00;1.85;;;;;;;;;;4139172;34;20190;-68
2021/04/20 13:24:30;;;;;;;4.20;1.75;;;;;;;;;;4139379;34;20110;-67
2021/04/20 13:26:56;;;;;;;6.65;2.28;;;;;;;;;;4138894;34;20231;-68
2021/04/20 13:29:28;;;;;;;5.45;2.22;;;;;;;;;;4139558;34;20087;-67
2021/04/20 13:32:06;;;;;;;13.70;2.92;;;;;;;;;;4139241;34;20220;-67
2021/04/20 13:34:40;;;;;;;18.67;2.80;;;;;;;;;;4151869;34;20107;-67
2021/04/20 13:37:11;;;;;;;11.32;2.53;;;;;;;;;;4139150;34;20137;-67
2021/04/20 13:39:42;;;;;;;2.60;1.87;;;;;;;;;;4151697;34;20113;-67
2021/04/20 13:42:10;;;;;;;3.45;1.62;;;;;;;;;;4138865;34;20126;-67
2021/04/20 13:44:51;;;;;;;1.95;1.80;;;;;;;;;;4151569;34;20107;-67
2021/04/20 13:47:17;;;;;;;4.07;2.33;;;;;;;;;;4139400;34;20202;-67
2021/04/20 13:49:53;;;;;;;4.30;2.50;;;;;;;;;;4138916;34;20215;-67
2021/04/20 13:52:21;;;;;;;4.10;1.60;;;;;;;;;;4139045;34;20522;-68
2021/04/20 13:54:52;;;;;;;4.28;2.55;;;;;;;;;;4151447;34;20119;-66
2021/04/20 13:57:24;;;;;;;6.15;2.42;;;;;;;;;;4139291;34;20190;-66
2021/04/20 13:59:52;;;;;;;7.05;2.50;;;;;;;;;;4139036;34;20111;-66
2021/04/20 14:02:18;;;;;;;5.50;2.83;;;;;;;;;;4139071;34;20130;-67
2021/04/20 14:04:49;;;;;;;3.90;2.40;;;;;;;;;;4127966;34;20123;-67
2021/04/20 14:07:27;;;;;;;7.47;2.50;;;;;;;;;;4139113;34;20622;-66
2021/04/20 14:09:56;;;;;;;9.95;2.65;;;;;;;;;;4139420;34;20103;-66
2021/04/20 14:12:36;;;;;;;7.32;2.28;;;;;;;;;;4138811;34;20529;-67
2021/04/20 14:15:17;;;;;;;5.75;2.42;;;;;;;;;;4138699;34;20103;-66
2021/04/20 14:17:45;;;;;;;11.63;2.53;;;;;;;;;;4139309;34;20114;-65
2021/04/20 14:20:33;;;;;;;15.35;3.58;;;;;;;;;;4138680;34;20635;-68
2021/04/20 14:23:03;;;;;;;6.50;2.50;;;;;;;;;;4146102;34;20380;-67
2021/04/20 14:25:38;;;;;;;2.00;1.50;;;;;;;;;;4138508;34;20130;-67
2021/04/20 14:28:05;;;;;;;7.40;3.10;;;;;;;;;;4138677;34;20099;-67
2021/04/20 14:30:31;;;;;;;11.75;2.80;;;;;;;;;;4150317;34;20601;-66
2021/04/20 14:32:57;;;;;;;5.22;2.20;;;;;;;;;;4138317;34;20126;-66
2021/04/20 14:35:34;;;;;;;3.35;1.77;;;;;;;;;;4127671;34;20155;-66
2021/04/20 14:38:00;;;;;;;5.15;2.20;;;;;;;;;;4151133;34;20099;-64
2021/04/20 14:40:27;;;;;;;7.05;2.60;;;;;;;;;;4151038;34;20142;-64
2021/04/20 14:42:54;;;;;;;10.20;2.60;;;;;;;;;;4149627;34;20131;-64
2021/04/20 14:45:28;;;;;;;12.85;2.58;;;;;;;;;;4151331;34;20471;-63
2021/04/20 14:47:55;;;;;;;7.45;1.90;;;;;;;;;;4138773;34;20507;-64
2021/04/20 14:50:26;;;;;;;5.50;2.47;;;;;;;;;;4151206;34;20107;-64
2021/04/20 14:53:19;;;;;;;5.57;2.62;;;;;;;;;;4150666;34;20135;-63
2021/04/20 14:55:53;;;;;;;4.95;2.28;;;;;;;;;;4144203;34;20133;-63
2021/04/20 14:58:28;;;;;;;4.65;2.50;;;;;;;;;;4138600;34;20157;-63
2021/04/20 15:01:04;;;;;;;7.00;2.33;;;;;;;;;;4138644;34;20136;-64
2021/04/20 15:03:30;;;;;;;5.05;2.47;;;;;;;;;;4150997;34;20113;-64
2021/04/20 15:05:59;;;;;;;6.30;2.50;;;;;;;;;;4150850;34;20130;-64
2021/04/20 15:08:36;;;;;;;7.47;2.90;;;;;;;;;;4150916;34;20107;-64
2021/04/20 15:11:03;;;;;;;19.70;3.53;;;;;;;;;;4138461;34;20443;-64
2021/04/20 15:13:34;;;;;;;5.32;2.90;;;;;;;;;;4138271;34;20103;-64
2021/04/20 15:16:04;;;;;;;9.82;2.67;;;;;;;;;;4138273;34;20131;-63
2021/04/20 15:18:30;;;;;;;9.90;2.25;;;;;;;;;;4138416;34;20096;-64
2021/04/20 15:21:21;;;;;;;7.20;2.72;;;;;;;;;;4138141;34;20123;-64
2021/04/20 15:23:55;;;;;;;4.57;2.37;;;;;;;;;;4138642;34;20154;-64
2021/04/20 15:26:32;;;;;;;3.50;2.40;;;;;;;;;;4138447;34;20150;-65
2021/04/20 15:29:04;;;;;;;8.00;2.20;;;;;;;;;;4138345;34;20098;-64
2021/04/20 15:31:30;;;;;;;3.62;2.35;;;;;;;;;;4150948;34;20122;-64
2021/04/20 15:33:56;;;;;;;10.32;3.17;;;;;;;;;;4127005;34;20395;-63